RJSS(METAR)
04/24 16:00
METAR RJSS 240700Z 16016KT 8000 FEW020 SCT080 BKN160 15/12 Q1011 RMK
1CU020 3AC080 7AC160 A2987=
戻る
トップページへ戻る
IMOC Co,.Ltd.